Haast (NZHT)

Aerodrome — Elev 22
New Zealand
S043.51.50.300 E169.02.27.400
Loading chart...

Current Weather

NZHT 211700Z 15021G32KT 80KM BKN049 12/00 Q0985 RMK ALT VATSIM USE ONLY

Published 1 hours 49 minutes ago

Airport Activity

Loading chart...
Loading chart...

Positions

CallsignRadio Name / Freq / Voice Room / TypeFrequencyVoice RoomType
NZCH-D_CTR Christchurch Control
129.200
nzch-d_ctr
129.200nzch-d_ctr
NZCH-S_CTR Christchurch Control
129.300
nzch-s_ctr
129.300nzch-s_ctr
UNICOM NZZC UNICOM
122.800
unicom_nzzc
122.800unicom_nzzc

Charts

Other Charts

Haast